Time;durP1;ratioP1;P1;durP2;ratioP2;P2;SDS_P1;SDS_P2;PMS_P1;PMS_P2;Temp;Humidity;BMP_temperature;BMP_pressure;BME280_temperature;BME280_humidity;BME280_pressure;Samples;Min_cycle;Max_cycle;Signal;HPM_P1;HPM_P2
2023/11/13 00:01:05;;;;;;;5.25;1.60;;;;;;;6.86;100.00;100118.47;5182991;28;20407;-72
2023/11/13 00:03:35;;;;;;;4.53;1.40;;;;;;;6.74;100.00;100113.63;5164556;28;20026;-74
2023/11/13 00:06:06;;;;;;;3.25;1.50;;;;;;;6.64;100.00;100102.66;5182031;28;20029;-74
2023/11/13 00:08:36;;;;;;;5.07;1.80;;;;;;;6.59;100.00;100101.06;5182593;28;20018;-74
2023/11/13 00:11:07;;;;;;;3.53;1.50;;;;;;;6.40;100.00;100102.47;5181666;28;20045;-74
2023/11/13 00:13:38;;;;;;;2.38;1.50;;;;;;;6.26;100.00;100097.59;5184068;28;20040;-73
2023/11/13 00:16:08;;;;;;;6.68;1.80;;;;;;;6.21;100.00;100096.88;5182077;28;20029;-74
2023/11/13 00:18:38;;;;;;;2.80;1.30;;;;;;;6.31;100.00;100105.28;5183962;28;20026;-74
2023/11/13 00:21:09;;;;;;;8.05;1.60;;;;;;;6.09;100.00;100112.75;5181642;28;20486;-75
2023/11/13 00:23:40;;;;;;;4.60;1.60;;;;;;;5.93;100.00;100095.03;5182907;28;20018;-74
2023/11/13 00:26:11;;;;;;;3.92;1.50;;;;;;;5.84;100.00;100090.91;5184425;28;20053;-74
2023/11/13 00:28:41;;;;;;;1.83;1.23;;;;;;;5.83;100.00;100084.03;5182330;28;20507;-74
2023/11/13 00:31:13;;;;;;;3.80;1.50;;;;;;;5.75;100.00;100069.50;5181360;28;20075;-74
2023/11/13 00:33:43;;;;;;;2.90;1.50;;;;;;;5.64;100.00;100069.78;5181031;28;20117;-74
2023/11/13 00:36:13;;;;;;;3.28;1.60;;;;;;;5.64;100.00;100067.19;5183346;28;20175;-74
2023/11/13 00:38:44;;;;;;;3.90;1.52;;;;;;;5.65;100.00;100068.88;5181501;28;20071;-74
2023/11/13 00:41:14;;;;;;;3.90;1.30;;;;;;;5.57;100.00;100075.16;5180844;28;20021;-74
2023/11/13 00:43:45;;;;;;;3.45;1.30;;;;;;;5.53;100.00;100078.66;5181730;28;20026;-73
2023/11/13 00:46:15;;;;;;;5.20;1.40;;;;;;;5.51;100.00;100085.63;5183159;28;20079;-74
2023/11/13 00:48:45;;;;;;;2.53;1.30;;;;;;;5.46;100.00;100088.34;5184827;28;20025;-74
2023/11/13 00:51:15;;;;;;;2.55;1.30;;;;;;;5.40;100.00;100070.34;5163285;28;20017;-75
2023/11/13 00:53:46;;;;;;;3.38;1.25;;;;;;;5.35;100.00;100073.91;5182802;28;20116;-75
2023/11/13 00:56:17;;;;;;;3.30;1.90;;;;;;;5.26;100.00;100079.31;5164035;28;20092;-74
2023/11/13 00:58:47;;;;;;;3.20;1.48;;;;;;;5.26;100.00;100075.84;5181036;28;20026;-71
2023/11/13 01:01:18;;;;;;;3.35;1.52;;;;;;;5.21;100.00;100075.97;5162917;28;20038;-74
2023/11/13 01:03:49;;;;;;;4.78;1.27;;;;;;;5.23;100.00;100074.22;5181242;28;20059;-72
2023/11/13 01:06:19;;;;;;;2.13;1.33;;;;;;;5.19;100.00;100054.41;5181636;28;20041;-74
2023/11/13 01:08:49;;;;;;;3.63;1.50;;;;;;;5.11;100.00;100058.94;5181121;28;20386;-73
2023/11/13 01:11:20;;;;;;;2.58;1.60;;;;;;;5.06;100.00;100058.19;5181470;28;20071;-74
2023/11/13 01:13:50;;;;;;;3.00;1.45;;;;;;;4.92;100.00;100067.97;5180391;28;20073;-73
2023/11/13 01:16:21;;;;;;;4.32;1.60;;;;;;;4.92;100.00;100065.38;5182176;28;20029;-72
2023/11/13 01:18:53;;;;;;;3.13;1.40;;;;;;;4.86;100.00;100075.03;5162868;28;20403;-73
2023/11/13 01:21:24;;;;;;;4.13;1.50;;;;;;;4.77;100.00;100070.03;5180959;28;20026;-73
2023/11/13 01:23:55;;;;;;;3.05;1.73;;;;;;;4.78;100.00;100084.69;5182828;28;20026;-73
2023/11/13 01:26:26;;;;;;;3.25;1.55;;;;;;;4.77;100.00;100083.81;5152648;28;20586;-73
2023/11/13 01:28:56;;;;;;;5.15;1.60;;;;;;;4.75;100.00;100093.34;5182877;28;20112;-74
2023/11/13 01:31:26;;;;;;;3.53;1.55;;;;;;;4.74;100.00;100089.06;5180646;28;20451;-74
2023/11/13 01:33:56;;;;;;;2.15;1.35;;;;;;;4.78;100.00;100092.44;5180240;28;20040;-74
2023/11/13 01:36:27;;;;;;;4.43;1.83;;;;;;;4.83;100.00;100067.31;5162914;28;20053;-74
2023/11/13 01:38:57;;;;;;;2.28;1.40;;;;;;;4.66;100.00;100053.88;5181566;28;20044;-74
2023/11/13 01:41:33;;;;;;;3.97;1.63;;;;;;;4.58;100.00;100060.91;5182103;28;20021;-73
2023/11/13 01:44:04;;;;;;;5.32;1.80;;;;;;;4.59;100.00;100058.31;5160639;28;20120;-73
2023/11/13 01:46:35;;;;;;;3.97;1.38;;;;;;;4.59;100.00;100060.91;5181465;28;20072;-72
2023/11/13 01:49:05;;;;;;;5.47;1.52;;;;;;;4.55;100.00;100069.63;5181513;28;20030;-70
2023/11/13 01:51:36;;;;;;;3.47;1.52;;;;;;;4.54;100.00;100062.75;5162878;28;20295;-73
2023/11/13 01:54:06;;;;;;;3.85;1.70;;;;;;;4.49;100.00;100067.13;5182376;28;20523;-73
2023/11/13 01:56:37;;;;;;;5.25;1.85;;;;;;;4.49;100.00;100076.63;5180592;28;20466;-72
2023/11/13 01:59:09;;;;;;;5.03;1.65;;;;;;;4.55;100.00;100073.91;5179829;28;20743;-72
2023/11/13 02:01:40;;;;;;;4.50;1.52;;;;;;;4.53;100.00;100068.78;5180335;28;20028;-72
2023/11/13 02:04:10;;;;;;;3.85;1.70;;;;;;;4.45;100.00;100075.84;5180198;28;20033;-73
2023/11/13 02:06:41;;;;;;;4.53;1.75;;;;;;;4.47;100.00;100062.88;5180727;28;20080;-73
2023/11/13 02:09:15;;;;;;;6.28;1.30;;;;;;;4.46;100.00;100041.31;5180349;28;20032;-73
2023/11/13 02:11:45;;;;;;;3.47;1.55;;;;;;;4.55;100.00;100042.88;5179505;28;20029;-67
2023/11/13 02:14:15;;;;;;;3.17;1.40;;;;;;;4.44;100.00;100042.25;5179882;28;20357;-73
2023/11/13 02:16:46;;;;;;;2.42;1.50;;;;;;;4.43;100.00;100051.72;5162501;28;20021;-73
2023/11/13 02:19:16;;;;;;;2.50;1.40;;;;;;;4.35;100.00;100053.63;5180153;28;20049;-73
2023/11/13 02:21:47;;;;;;;3.33;1.50;;;;;;;4.37;100.00;100049.28;5181196;28;20521;-72
2023/11/13 02:24:17;;;;;;;4.43;1.52;;;;;;;4.30;100.00;100050.25;5180901;28;20096;-73
2023/11/13 02:26:48;;;;;;;4.20;1.58;;;;;;;4.23;100.00;100064.19;5179439;28;20059;-73
2023/11/13 02:29:19;;;;;;;3.60;1.30;;;;;;;4.22;100.00;100072.84;5180263;28;20122;-73
2023/11/13 02:31:54;;;;;;;2.70;1.25;;;;;;;4.29;100.00;100063.22;5179835;28;20036;-73
2023/11/13 02:34:24;;;;;;;8.40;3.10;;;;;;;4.20;100.00;100073.72;5160933;28;20025;-70
2023/11/13 02:36:55;;;;;;;4.03;1.50;;;;;;;4.25;100.00;100075.34;5181182;28;20032;-74
2023/11/13 02:39:26;;;;;;;6.18;1.98;;;;;;;4.19;100.00;100061.69;5179653;28;20040;-70
2023/11/13 02:41:56;;;;;;;3.22;1.60;;;;;;;4.32;100.00;100058.00;5162364;28;20511;-73
2023/11/13 02:44:27;;;;;;;5.25;1.70;;;;;;;4.27;100.00;100068.41;5180139;28;20030;-73
2023/11/13 02:46:57;;;;;;;5.80;1.60;;;;;;;4.08;100.00;100064.47;5180314;28;20064;-73
2023/11/13 02:49:27;;;;;;;3.72;1.40;;;;;;;4.18;100.00;100054.81;5179597;28;20117;-73
2023/11/13 02:51:58;;;;;;;3.75;1.60;;;;;;;4.19;100.00;100048.75;5182290;28;20033;-69
2023/11/13 02:54:28;;;;;;;3.03;1.80;;;;;;;4.12;100.00;100039.41;5179336;28;20029;-72
2023/11/13 02:56:58;;;;;;;4.97;1.80;;;;;;;4.12;100.00;100037.66;5179879;28;20033;-72
2023/11/13 02:59:28;;;;;;;4.40;1.40;;;;;;;3.99;100.00;100036.19;5178662;28;20080;-73
2023/11/13 03:01:59;;;;;;;3.60;1.45;;;;;;;3.95;100.00;100037.13;5178749;28;20037;-73
2023/11/13 03:04:30;;;;;;;2.42;1.30;;;;;;;3.99;100.00;100043.94;5180161;28;20266;-74
2023/11/13 03:07:00;;;;;;;3.15;1.70;;;;;;;3.95;100.00;100036.28;5161606;28;20391;-69
2023/11/13 03:09:31;;;;;;;3.00;1.52;;;;;;;4.01;100.00;100026.69;5161833;28;20310;-73
2023/11/13 03:12:02;;;;;;;3.53;1.50;;;;;;;3.91;100.00;100022.56;5178565;28;20041;-71
2023/11/13 03:14:32;;;;;;;4.35;1.55;;;;;;;3.89;100.00;100026.91;5179749;28;20036;-71
2023/11/13 03:17:03;;;;;;;3.40;1.65;;;;;;;3.95;100.00;100037.13;5178455;28;20026;-71
2023/11/13 03:19:33;;;;;;;4.45;1.67;;;;;;;3.80;100.00;100029.63;5178818;28;20018;-72
2023/11/13 03:22:04;;;;;;;2.60;1.35;;;;;;;3.71;100.00;100029.81;5180785;28;20072;-73
2023/11/13 03:24:34;;;;;;;4.15;1.40;;;;;;;3.71;100.00;100022.06;5178591;28;20025;-74
2023/11/13 03:27:05;;;;;;;4.32;1.48;;;;;;;3.59;100.00;100018.84;5177723;28;20037;-73
2023/11/13 03:29:35;;;;;;;2.42;1.40;;;;;;;3.56;100.00;100016.28;5179865;28;20053;-72
2023/11/13 03:32:06;;;;;;;5.70;1.73;;;;;;;3.56;100.00;100029.19;5181426;28;20030;-73
2023/11/13 03:34:36;;;;;;;3.33;1.63;;;;;;;3.48;100.00;100032.78;5179276;28;20065;-73
2023/11/13 03:37:07;;;;;;;3.65;1.70;;;;;;;3.47;100.00;100031.06;5181725;28;20091;-71
2023/11/13 03:39:37;;;;;;;3.72;1.52;;;;;;;3.43;100.00;100037.16;5182882;28;20045;-73
2023/11/13 03:42:09;;;;;;;3.05;1.38;;;;;;;3.39;100.00;100053.59;5181395;28;20689;-73
2023/11/13 03:44:39;;;;;;;4.85;1.50;;;;;;;3.49;100.00;100048.25;5182421;28;20369;-73
2023/11/13 03:47:10;;;;;;;6.45;1.75;;;;;;;3.49;100.00;100055.13;5164895;28;20045;-73
2023/11/13 03:49:40;;;;;;;2.20;1.30;;;;;;;3.57;100.00;100048.13;5182717;28;20025;-71
2023/11/13 03:52:13;;;;;;;2.53;1.35;;;;;;;3.53;100.00;100056.81;5184869;28;20029;-72
2023/11/13 03:54:43;;;;;;;3.30;1.23;;;;;;;3.59;100.00;100048.09;5183159;28;21169;-72
2023/11/13 03:57:14;;;;;;;5.22;1.40;;;;;;;3.50;100.00;100043.97;5182254;28;20030;-73
2023/11/13 03:59:44;;;;;;;4.38;1.30;;;;;;;3.47;100.00;100041.41;5182499;28;20022;-74
2023/11/13 04:02:14;;;;;;;8.27;1.60;;;;;;;3.56;100.00;100041.28;5182710;28;20026;-74
2023/11/13 04:04:45;;;;;;;2.35;1.33;;;;;;;3.65;100.00;100032.47;5183048;28;20179;-73
2023/11/13 04:07:20;;;;;;;5.80;2.42;;;;;;;3.63;100.00;100033.41;5182313;28;20404;-73
2023/11/13 04:09:50;;;;;;;13.02;5.50;;;;;;;3.57;100.00;100027.47;5164936;28;20013;-73
2023/11/13 04:12:20;;;;;;;7.20;2.80;;;;;;;3.62;100.00;100029.94;5163728;28;20509;-73
2023/11/13 04:14:51;;;;;;;3.22;1.77;;;;;;;3.58;100.00;100037.78;5182771;28;20021;-74
2023/11/13 04:17:22;;;;;;;5.25;1.80;;;;;;;3.70;100.00;100038.44;5182473;28;20618;-74
2023/11/13 04:19:53;;;;;;;3.33;1.65;;;;;;;3.77;100.00;100040.03;5182910;28;20037;-74
2023/11/13 04:22:23;;;;;;;3.97;1.65;;;;;;;3.72;100.00;100039.25;5184504;28;20044;-73
2023/11/13 04:24:54;;;;;;;3.28;1.60;;;;;;;3.74;100.00;100042.66;5182515;28;20026;-73
2023/11/13 04:27:25;;;;;;;3.55;1.70;;;;;;;3.73;100.00;100046.13;5183702;28;20213;-72
2023/11/13 04:29:56;;;;;;;2.92;1.85;;;;;;;3.70;100.00;100055.66;5168273;28;20068;-72
2023/11/13 04:32:26;;;;;;;4.80;1.98;;;;;;;3.69;100.00;100052.25;5181853;28;20036;-73
2023/11/13 04:34:57;;;;;;;3.30;1.80;;;;;;;3.67;100.00;100058.28;5186008;28;20029;-74
2023/11/13 04:37:27;;;;;;;3.60;1.85;;;;;;;3.62;100.00;100050.63;5182436;28;20054;-73
2023/11/13 04:39:57;;;;;;;4.38;1.70;;;;;;;3.56;100.00;100056.78;5164901;28;20026;-73
2023/11/13 04:42:28;;;;;;;5.15;1.90;;;;;;;3.62;100.00;100053.19;5181708;28;20030;-73
2023/11/13 04:44:58;;;;;;;4.53;1.80;;;;;;;3.60;100.00;100044.63;5165245;28;20029;-70
2023/11/13 04:47:28;;;;;;;3.38;1.60;;;;;;;3.66;100.00;100039.38;5182073;28;21810;-73
2023/11/13 04:49:59;;;;;;;3.65;1.88;;;;;;;3.58;100.00;100036.03;5182083;28;20069;-72
2023/11/13 04:52:30;;;;;;;2.70;1.60;;;;;;;3.44;100.00;100025.97;5183789;28;20034;-73
2023/11/13 04:55:00;;;;;;;4.80;1.85;;;;;;;3.41;100.00;100026.88;5181975;28;20026;-73
2023/11/13 04:57:30;;;;;;;3.72;1.73;;;;;;;3.37;100.00;100019.19;5156093;28;20029;-73
2023/11/13 05:00:01;;;;;;;3.85;1.70;;;;;;;3.30;100.00;100015.84;5183850;28;20533;-74
2023/11/13 05:02:36;;;;;;;3.63;1.80;;;;;;;3.33;100.00;100009.81;5187079;28;20037;-72
2023/11/13 05:05:09;;;;;;;4.05;1.65;;;;;;;3.22;100.00;100016.84;5193564;28;20045;-69
2023/11/13 05:07:39;;;;;;;3.58;1.88;;;;;;;3.51;100.00;100012.09;5188909;28;20059;-74
2023/11/13 05:10:10;;;;;;;3.67;1.60;;;;;;;3.45;100.00;100004.41;5193012;28;20041;-73
2023/11/13 05:12:41;;;;;;;4.10;1.70;;;;;;;3.34;100.00;100004.59;5184143;28;20583;-73
2023/11/13 05:15:14;;;;;;;3.20;1.65;;;;;;;3.32;100.00;100000.31;5182562;28;20087;-73
2023/11/13 05:17:44;;;;;;;3.80;1.83;;;;;;;3.21;100.00;99997.06;5180704;28;20142;-73
2023/11/13 05:20:16;;;;;;;8.15;2.15;;;;;;;3.27;100.00;100000.41;5180719;28;20032;-73
2023/11/13 05:22:48;;;;;;;2.85;1.70;;;;;;;3.33;100.00;100005.47;5164215;28;20029;-73
2023/11/13 05:25:18;;;;;;;5.03;1.70;;;;;;;3.30;100.00;100008.09;5180565;28;20369;-72
2023/11/13 05:27:49;;;;;;;3.05;1.60;;;;;;;3.32;100.00;100008.06;5182165;28;20453;-73
2023/11/13 05:30:19;;;;;;;6.47;2.05;;;;;;;3.35;100.00;100013.22;5180558;28;20032;-73
2023/11/13 05:32:49;;;;;;;4.45;1.60;;;;;;;3.42;100.00;100009.63;5180536;28;20021;-73
2023/11/13 05:35:20;;;;;;;3.10;1.50;;;;;;;3.37;100.00;100011.44;5184811;28;20110;-73
2023/11/13 05:37:50;;;;;;;2.92;1.55;;;;;;;3.29;100.00;100026.19;5181363;28;20427;-74
2023/11/13 05:40:24;;;;;;;7.38;1.80;;;;;;;3.32;100.00;100031.31;5164507;28;20127;-73
2023/11/13 05:42:54;;;;;;;2.58;1.30;;;;;;;3.30;100.00;100038.22;5184170;28;20156;-72
2023/11/13 05:45:24;;;;;;;3.22;1.65;;;;;;;3.18;100.00;100028.09;5180540;28;20108;-70
2023/11/13 05:47:55;;;;;;;10.25;1.60;;;;;;;3.16;100.00;100028.13;5182363;28;20026;-73
2023/11/13 05:50:25;;;;;;;3.90;1.90;;;;;;;3.21;100.00;100023.72;5180481;28;20329;-72
2023/11/13 05:52:55;;;;;;;3.10;1.50;;;;;;;3.13;100.00;100027.28;5184639;28;20029;-73
2023/11/13 05:55:26;;;;;;;6.88;1.75;;;;;;;3.10;100.00;100024.75;5181577;28;20096;-73
2023/11/13 05:57:56;;;;;;;4.03;1.70;;;;;;;3.10;100.00;100019.59;5184603;28;20033;-73
2023/11/13 06:00:26;;;;;;;3.25;1.80;;;;;;;3.07;100.00;100007.63;5187765;28;20041;-73
2023/11/13 06:02:57;;;;;;;4.55;2.05;;;;;;;2.92;100.00;100006.97;5181107;28;20026;-73
2023/11/13 06:05:27;;;;;;;9.13;2.00;;;;;;;3.08;100.00;100000.72;5165243;28;20034;-73
2023/11/13 06:07:58;;;;;;;6.78;1.83;;;;;;;3.08;100.00;99990.38;5179708;28;20037;-70
2023/11/13 06:10:29;;;;;;;3.92;2.10;;;;;;;3.15;100.00;99989.41;5181601;28;20018;-71
2023/11/13 06:12:59;;;;;;;3.70;2.28;;;;;;;3.15;100.00;99992.00;5183569;28;20028;-72
2023/11/13 06:15:30;;;;;;;4.38;2.13;;;;;;;3.19;100.00;99988.50;5163410;28;20080;-74
2023/11/13 06:18:00;;;;;;;4.50;2.10;;;;;;;3.21;100.00;99979.84;5164258;28;20509;-72
2023/11/13 06:20:30;;;;;;;5.85;2.22;;;;;;;3.40;100.00;99983.00;5185359;28;20660;-73
2023/11/13 06:23:02;;;;;;;6.80;2.20;;;;;;;3.39;100.00;99976.13;5183221;28;20049;-74
2023/11/13 06:25:32;;;;;;;3.85;2.15;;;;;;;3.44;100.00;99980.34;5182221;28;20025;-73
2023/11/13 06:28:03;;;;;;;5.07;2.10;;;;;;;3.39;100.00;99981.28;5180537;28;20029;-73
2023/11/13 06:30:33;;;;;;;8.25;2.42;;;;;;;3.35;100.00;99970.16;5181795;28;20020;-72
2023/11/13 06:33:04;;;;;;;3.50;1.90;;;;;;;3.37;100.00;99965.81;5181666;28;20028;-72
2023/11/13 06:35:35;;;;;;;5.07;2.00;;;;;;;3.40;100.00;99968.34;5180367;28;20314;-73
2023/11/13 06:38:08;;;;;;;3.70;2.13;;;;;;;3.45;100.00;99965.69;5181203;28;20045;-73
2023/11/13 06:40:40;;;;;;;5.07;2.00;;;;;;;3.46;100.00;99965.66;5178612;28;20041;-73
2023/11/13 06:43:11;;;;;;;3.55;1.92;;;;;;;3.54;100.00;99971.53;5179820;28;20573;-73
2023/11/13 06:45:43;;;;;;;4.72;1.98;;;;;;;3.48;100.00;99975.97;5179883;28;20391;-71
2023/11/13 06:48:13;;;;;;;4.32;2.03;;;;;;;3.61;100.00;99979.16;5181132;28;20507;-72
2023/11/13 06:50:43;;;;;;;7.00;2.08;;;;;;;3.50;100.00;99977.66;5180057;28;20092;-72
2023/11/13 06:53:14;;;;;;;5.22;2.00;;;;;;;3.54;100.00;99976.72;5183952;28;20514;-73
2023/11/13 06:55:44;;;;;;;4.03;2.08;;;;;;;3.68;100.00;99964.41;5180930;28;20025;-73
2023/11/13 06:58:15;;;;;;;3.53;2.08;;;;;;;3.60;100.00;99966.28;5181474;28;20022;-73
2023/11/13 07:00:45;;;;;;;5.63;1.90;;;;;;;3.60;100.00;99961.13;5181457;28;20203;-73
2023/11/13 07:03:15;;;;;;;5.95;2.20;;;;;;;3.58;100.00;99963.72;5165654;28;20447;-73
2023/11/13 07:05:46;;;;;;;6.32;2.03;;;;;;;3.58;100.00;99951.69;5184886;28;20501;-72
2023/11/13 07:08:16;;;;;;;11.55;5.68;;;;;;;3.63;100.00;99936.06;5168250;28;20037;-73
2023/11/13 07:10:46;;;;;;;6.22;3.15;;;;;;;3.81;100.00;99946.06;5184419;28;20116;-68
2023/11/13 07:13:18;;;;;;;3.85;2.20;;;;;;;3.69;100.00;99938.56;5186111;28;20025;-72
2023/11/13 07:15:48;;;;;;;5.43;2.00;;;;;;;3.78;100.00;99937.53;5184779;28;20546;-72
2023/11/13 07:18:18;;;;;;;5.47;2.08;;;;;;;3.85;100.00;99929.66;5185957;28;20121;-72
2023/11/13 07:20:50;;;;;;;3.50;1.90;;;;;;;3.89;100.00;99936.44;5184740;28;20051;-70
2023/11/13 07:23:21;;;;;;;3.88;2.10;;;;;;;3.98;100.00;99925.91;5188012;28;20026;-73
2023/11/13 07:25:51;;;;;;;3.97;2.20;;;;;;;3.94;100.00;99920.88;5184124;28;20034;-73
2023/11/13 07:28:22;;;;;;;5.95;1.98;;;;;;;3.94;100.00;99926.03;5185520;28;20043;-73
2023/11/13 07:30:52;;;;;;;7.05;1.85;;;;;;;4.06;100.00;99921.47;5185022;28;20313;-73
2023/11/13 07:33:23;;;;;;;6.05;1.90;;;;;;;4.07;100.00;99923.16;5185469;28;20036;-73
2023/11/13 07:35:53;;;;;;;4.18;1.70;;;;;;;4.17;100.00;99921.25;5186167;28;20448;-73
2023/11/13 07:38:24;;;;;;;5.85;2.35;;;;;;;4.14;100.00;99916.16;5170249;28;20095;-68
2023/11/13 07:40:54;;;;;;;9.25;2.03;;;;;;;4.25;100.00;99912.44;5191998;28;20030;-72
2023/11/13 07:43:25;;;;;;;3.80;2.03;;;;;;;4.39;100.00;99907.84;5229297;22;20068;-70
2023/11/13 07:45:55;;;;;;;3.38;2.17;;;;;;;4.52;100.00;99898.06;5212281;28;20083;-71
2023/11/13 07:48:26;;;;;;;4.03;2.30;;;;;;;4.73;100.00;99905.34;5210617;28;20392;-71
2023/11/13 07:50:57;;;;;;;4.93;1.92;;;;;;;4.74;100.00;99913.09;5207926;28;20028;-71
2023/11/13 07:53:27;;;;;;;4.60;1.90;;;;;;;4.81;100.00;99906.88;5207264;28;20029;-71
2023/11/13 07:55:57;;;;;;;4.30;1.88;;;;;;;4.94;100.00;99905.69;5213809;28;20321;-71
2023/11/13 07:58:28;;;;;;;5.13;2.10;;;;;;;4.98;100.00;99906.50;5210539;28;20121;-71
2023/11/13 08:00:59;;;;;;;3.42;1.95;;;;;;;5.18;100.00;99907.69;5213873;28;20037;-71
2023/11/13 08:03:29;;;;;;;3.95;2.00;;;;;;;5.36;100.00;99916.75;5207989;28;20033;-71
2023/11/13 08:05:59;;;;;;;5.15;2.45;;;;;;;5.58;100.00;99921.34;5206857;28;20041;-71
2023/11/13 08:08:29;;;;;;;4.60;2.03;;;;;;;5.84;100.00;99917.22;5210405;28;20025;-71
2023/11/13 08:11:00;;;;;;;4.15;2.03;;;;;;;6.45;100.00;99911.97;5210498;28;20043;-71
2023/11/13 08:13:30;;;;;;;4.10;2.10;;;;;;;6.26;100.00;99909.97;5208501;28;20391;-71
2023/11/13 08:16:04;;;;;;;4.18;1.77;;;;;;;6.27;100.00;99899.53;5211507;28;20320;-71
2023/11/13 08:18:34;;;;;;;3.50;1.95;;;;;;;6.34;100.00;99895.03;5193504;28;20592;-71
2023/11/13 08:21:06;;;;;;;7.72;2.03;;;;;;;6.33;100.00;99893.31;5214025;28;20040;-71
2023/11/13 08:23:36;;;;;;;6.10;2.20;;;;;;;5.95;100.00;99897.00;5210401;28;20368;-71
2023/11/13 08:26:08;;;;;;;5.15;1.83;;;;;;;6.18;100.00;99891.16;5213444;28;20029;-71
2023/11/13 08:28:38;;;;;;;5.07;1.75;;;;;;;6.05;100.00;99876.88;5211179;28;20151;-71
2023/11/13 08:31:15;;;;;;;4.30;1.73;;;;;;;6.27;100.00;99864.97;5211792;28;20127;-71
2023/11/13 08:33:47;;;;;;;3.38;1.50;;;;;;;6.58;100.00;99869.19;5204667;28;20036;-71
2023/11/13 08:36:27;;;;;;;4.55;1.38;;;;;;;6.42;100.00;99851.53;5208314;28;20032;-71
2023/11/13 08:38:59;;;;;;;3.83;1.23;;;;;;;6.52;99.44;99852.94;5211029;28;20100;-71
2023/11/13 08:41:32;;;;;;;5.45;1.70;;;;;;;6.42;99.69;99849.78;5210219;28;20371;-71
2023/11/13 08:44:03;;;;;;;4.28;1.40;;;;;;;6.57;99.83;99853.69;5203646;28;20510;-71
2023/11/13 08:46:35;;;;;;;2.85;1.70;;;;;;;6.60;100.00;99844.03;5211544;28;20029;-71
2023/11/13 08:49:06;;;;;;;8.45;1.80;;;;;;;6.58;99.73;99843.22;5211107;28;20021;-71
2023/11/13 08:51:38;;;;;;;4.18;2.03;;;;;;;6.51;100.00;99830.50;5210454;28;20035;-71
2023/11/13 08:54:09;;;;;;;3.63;2.00;;;;;;;6.57;100.00;99832.91;5210745;28;20025;-71
2023/11/13 08:56:41;;;;;;;3.60;1.67;;;;;;;6.70;100.00;99821.22;5209698;28;20760;-71
2023/11/13 08:59:12;;;;;;;5.25;2.33;;;;;;;6.67;100.00;99816.13;5193394;28;20067;-71
2023/11/13 09:01:42;;;;;;;4.80;2.03;;;;;;;6.69;100.00;99809.13;5208713;28;20472;-71
2023/11/13 09:04:13;;;;;;;6.57;2.30;;;;;;;6.78;100.00;99806.25;5210064;28;20537;-71
2023/11/13 09:06:45;;;;;;;6.18;2.47;;;;;;;6.92;100.00;99806.66;5203477;28;20040;-71
2023/11/13 09:09:15;;;;;;;4.55;2.50;;;;;;;7.05;100.00;99802.72;5204640;28;20065;-71
2023/11/13 09:11:47;;;;;;;7.20;2.67;;;;;;;7.30;100.00;99805.28;5203574;28;20045;-71
2023/11/13 09:14:22;;;;;;;6.63;2.80;;;;;;;7.40;100.00;99817.09;5204959;28;20430;-71
2023/11/13 09:16:53;;;;;;;8.10;2.90;;;;;;;7.49;100.00;99811.53;5206818;28;21338;-71
2023/11/13 09:19:27;;;;;;;9.77;3.53;;;;;;;7.63;100.00;99809.31;5204222;28;20024;-71
2023/11/13 09:21:59;;;;;;;9.50;3.50;;;;;;;7.61;100.00;99808.53;5202363;28;20029;-71
2023/11/13 09:24:30;;;;;;;7.65;3.38;;;;;;;7.71;100.00;99790.84;5209875;28;20327;-71
2023/11/13 09:27:00;;;;;;;7.93;3.80;;;;;;;7.91;100.00;99776.16;5202117;28;20382;-71
2023/11/13 09:29:30;;;;;;;9.95;4.30;;;;;;;7.92;100.00;99774.44;5204573;28;20026;-71
2023/11/13 09:32:00;;;;;;;10.48;4.40;;;;;;;8.09;100.00;99772.91;5205336;28;20021;-71
2023/11/13 09:34:31;;;;;;;8.10;4.15;;;;;;;8.17;100.00;99767.38;5204127;28;20029;-71
2023/11/13 09:37:05;;;;;;;10.73;4.32;;;;;;;8.20;98.96;99760.31;5202217;28;20029;-71
2023/11/13 09:39:39;;;;;;;8.40;3.58;;;;;;;8.37;99.44;99757.91;5203298;28;20025;-71
2023/11/13 09:42:14;;;;;;;10.65;4.63;;;;;;;8.36;100.00;99745.81;5203279;28;20047;-71
2023/11/13 09:44:48;;;;;;;;;;;;;;;8.39;99.27;99747.44;5204401;28;20017;-71
2023/11/13 09:47:24;;;;;;;8.18;3.97;;;;;;;8.56;98.16;99743.25;5203580;28;20402;-71
2023/11/13 09:50:03;;;;;;;10.18;4.28;;;;;;;8.51;97.83;99755.59;5203715;28;20024;-71
2023/11/13 09:52:34;;;;;;;7.30;4.00;;;;;;;8.50;98.80;99748.72;5200714;28;20021;-71
2023/11/13 09:55:05;;;;;;;8.45;4.30;;;;;;;8.60;95.67;99755.25;5203696;28;20494;-71
2023/11/13 09:57:35;;;;;;;7.85;4.22;;;;;;;8.58;96.28;99758.81;5202288;28;20259;-71
2023/11/13 10:00:08;;;;;;;10.43;4.50;;;;;;;8.49;95.07;99756.56;5202652;28;20036;-71
2023/11/13 10:02:41;;;;;;;8.50;4.60;;;;;;;8.23;95.19;99756.78;5205322;28;20034;-71
2023/11/13 10:05:12;;;;;;;7.20;4.05;;;;;;;8.42;97.15;99749.94;5202879;28;20033;-71
2023/11/13 10:07:47;;;;;;;10.45;4.22;;;;;;;8.37;97.22;99752.69;5205168;28;20387;-71
2023/11/13 10:10:22;;;;;;;10.55;5.15;;;;;;;8.30;98.87;99751.25;5204088;28;20029;-71
2023/11/13 10:12:55;;;;;;;8.90;4.47;;;;;;;8.31;99.37;99747.75;5205517;28;20026;-71
2023/11/13 10:15:28;;;;;;;10.85;5.13;;;;;;;8.27;99.39;99756.59;5203623;28;20021;-71
2023/11/13 10:17:59;;;;;;;10.50;5.20;;;;;;;8.41;99.97;99741.25;5202707;28;20040;-71
2023/11/13 10:20:30;;;;;;;9.77;5.32;;;;;;;8.42;99.88;99735.13;5206946;28;20028;-71
2023/11/13 10:23:05;;;;;;;9.98;5.03;;;;;;;8.45;100.00;99724.63;5204816;28;20029;-71
2023/11/13 10:25:50;;;;;;;11.38;4.85;;;;;;;8.53;100.00;99721.72;5204805;28;20391;-71
2023/11/13 10:28:32;;;;;;;9.65;5.20;;;;;;;8.51;98.85;99718.28;5205545;28;20512;-71
2023/11/13 10:31:15;;;;;;;7.80;4.15;;;;;;;8.37;99.78;99712.81;5202982;28;20033;-71
2023/11/13 10:34:02;;;;;;;9.48;5.25;;;;;;;8.25;99.50;99715.91;5201748;28;20082;-71
2023/11/13 10:36:33;;;;;;;10.27;4.95;;;;;;;8.29;100.00;99712.28;5204076;28;20026;-71
2023/11/13 10:39:11;;;;;;;9.00;4.50;;;;;;;8.23;100.00;99700.34;5204114;28;20028;-71
2023/11/13 10:41:45;;;;;;;10.10;4.75;;;;;;;8.29;100.00;99697.50;5200787;28;20049;-71
2023/11/13 10:44:27;;;;;;;9.13;4.80;;;;;;;8.30;100.00;99699.22;5206176;28;20032;-71
2023/11/13 10:46:57;;;;;;;11.10;5.15;;;;;;;8.23;100.00;99699.50;5200942;28;20079;-71
2023/11/13 10:49:28;;;;;;;11.25;5.43;;;;;;;7.95;100.00;99680.66;5205298;28;20024;-71
2023/11/13 10:51:59;;;;;;;12.07;5.35;;;;;;;8.06;100.00;99684.53;5201736;28;20382;-71
2023/11/13 10:54:31;;;;;;;10.95;5.65;;;;;;;8.19;100.00;99680.56;5204880;28;20105;-71
2023/11/13 10:57:03;;;;;;;8.98;4.97;;;;;;;8.24;100.00;99683.81;5201513;28;20040;-72
2023/11/13 10:59:36;;;;;;;9.20;4.90;;;;;;;8.24;100.00;99675.19;5203276;28;20487;-72
2023/11/13 11:02:32;;;;;;;10.88;5.25;;;;;;;8.16;100.00;99670.25;5206070;28;20672;-71
2023/11/13 11:05:09;;;;;;;8.07;4.95;;;;;;;8.14;100.00;99672.06;5204693;28;20033;-71
2023/11/13 11:07:39;;;;;;;12.48;6.00;;;;;;;8.17;100.00;99666.75;5205824;28;20033;-71
2023/11/13 11:10:11;;;;;;;10.18;5.40;;;;;;;8.20;100.00;99658.84;5190412;28;20025;-71
2023/11/13 11:12:50;;;;;;;10.13;5.07;;;;;;;8.02;100.00;99659.53;5200139;28;20021;-71
2023/11/13 11:15:45;;;;;;;8.50;4.80;;;;;;;8.13;100.00;99656.50;5202228;28;20028;-71
2023/11/13 11:18:36;;;;;;;10.45;5.30;;;;;;;8.14;100.00;99635.63;5202989;28;20040;-71
2023/11/13 11:21:25;;;;;;;10.85;5.68;;;;;;;8.29;100.00;99635.06;5201474;28;20772;-71
2023/11/13 11:24:03;;;;;;;9.77;5.47;;;;;;;8.17;100.00;99627.69;5202372;28;20033;-71
2023/11/13 11:26:52;;;;;;;9.50;5.47;;;;;;;8.27;100.00;99616.06;5201465;28;20116;-71
2023/11/13 11:29:40;;;;;;;10.30;5.93;;;;;;;8.26;100.00;99608.28;5202989;28;20031;-71
2023/11/13 11:32:13;;;;;;;9.80;5.45;;;;;;;8.29;100.00;99593.41;5203298;28;20463;-71
2023/11/13 11:34:49;;;;;;;10.48;5.28;;;;;;;8.24;100.00;99587.53;5200249;28;20052;-71
2023/11/13 11:37:20;;;;;;;9.68;5.68;;;;;;;8.27;100.00;99589.16;5203871;28;20022;-71
2023/11/13 11:39:53;;;;;;;9.75;5.63;;;;;;;8.37;100.00;99591.31;5202994;28;20536;-71
2023/11/13 11:42:24;;;;;;;8.95;5.35;;;;;;;8.35;100.00;99582.72;5203074;28;20540;-71
2023/11/13 11:44:54;;;;;;;12.38;5.35;;;;;;;8.34;100.00;99583.63;5202862;28;20110;-71
2023/11/13 11:47:27;;;;;;;10.88;5.60;;;;;;;8.37;100.00;99572.25;5202773;28;20033;-71
2023/11/13 11:49:59;;;;;;;8.68;4.97;;;;;;;8.34;100.00;99570.63;5202447;28;20391;-71